HAAB/ADD METAR and TAF weather

Enter ICAO airport designator
Station Type Date Time Source
HAAB METAR 2024/06/15 23:00 UTC NOAA

HAAB 152300Z 32003KT 9999 FEW025 16/10 Q1024


Station Type Date Time Source
HAAB Decoded METAR 2024/06/15 23:00 UTC NOAA

Addis Ababa, Ethiopia (HAAB) 08-59N 038-48E 2324M
Jun 15, 2024 - 07:00 PM EDT / 2024.06.15 2300 UTC
Wind: from the NW (320 degrees) at 3 MPH (3 KT):0
Visibility: greater than 7 mile(s):0
Sky conditions: mostly clear
Temperature: 60 F (16 C)
Dew Point: 50 F (10 C)
Relative Humidity: 67%
Pressure (altimeter): 30.24 in. Hg (1024 hPa)
ob: HAAB 152300Z 32003KT 9999 FEW025 16/10 Q1024
cycle: 23

Station Type Date Time Source
HAAB TAF 2024/06/15 18:24 UTC NOAA